createdAt,value
2023-05-12T00:00:11.111Z,8.20
2023-05-12T00:01:10.808Z,8.29
2023-05-12T00:02:11.049Z,7.74
2023-05-12T00:03:11.052Z,8.59
2023-05-12T00:04:11.105Z,8.74
2023-05-12T00:05:11.006Z,9.80
2023-05-12T00:06:11.089Z,8.86
2023-05-12T00:07:11.212Z,8.95
2023-05-12T00:08:11.253Z,8.79
2023-05-12T00:09:11.312Z,8.94
2023-05-12T00:10:11.349Z,8.79
2023-05-12T00:11:11.454Z,9.99
2023-05-12T00:12:11.542Z,10.48
2023-05-12T00:13:11.569Z,10.06
2023-05-12T00:14:11.622Z,10.81
2023-05-12T00:15:11.702Z,9.37
2023-05-12T00:16:11.770Z,9.01
2023-05-12T00:17:11.852Z,8.91
2023-05-12T00:18:11.898Z,8.43
2023-05-12T00:19:11.954Z,8.64
2023-05-12T00:20:11.998Z,8.34
2023-05-12T00:21:12.118Z,8.03
2023-05-12T00:22:12.025Z,8.47
2023-05-12T00:23:12.063Z,8.69
2023-05-12T00:24:12.178Z,9.15
2023-05-12T00:25:12.236Z,7.80
2023-05-12T00:26:12.596Z,8.31
2023-05-12T00:27:12.416Z,7.62
2023-05-12T00:28:12.495Z,8.07
2023-05-12T00:29:12.613Z,8.57
2023-05-12T00:30:12.684Z,8.70
2023-05-12T00:31:12.841Z,9.24
2023-05-12T00:32:12.820Z,8.31
2023-05-12T00:33:12.873Z,9.46
2023-05-12T00:34:12.924Z,9.77
2023-05-12T00:35:12.937Z,10.00
2023-05-12T00:36:13.134Z,9.96
2023-05-12T00:37:13.067Z,8.58
2023-05-12T00:38:13.173Z,9.59
2023-05-12T00:39:13.207Z,9.02
2023-05-12T00:40:13.240Z,9.02
2023-05-12T00:41:13.633Z,8.98
2023-05-12T00:42:13.361Z,10.20
2023-05-12T00:43:13.427Z,9.13
2023-05-12T00:44:13.492Z,8.86
2023-05-12T00:45:13.573Z,8.83
2023-05-12T00:46:13.671Z,9.14
2023-05-12T00:47:13.683Z,9.01
2023-05-12T00:48:13.750Z,10.25
2023-05-12T00:49:13.765Z,10.29
2023-05-12T00:50:13.812Z,10.41
2023-05-12T00:51:13.895Z,9.01
2023-05-12T00:52:13.887Z,9.91
2023-05-12T00:53:13.911Z,10.16
2023-05-12T00:54:13.990Z,10.58
2023-05-12T00:55:14.627Z,10.33
2023-05-12T00:56:14.038Z,11.65
2023-05-12T00:57:14.053Z,10.62
2023-05-12T00:58:14.110Z,10.50
2023-05-12T00:59:14.161Z,10.92
2023-05-12T01:00:14.189Z,10.77
2023-05-12T01:01:14.675Z,10.29
2023-05-12T01:02:14.285Z,9.84
2023-05-12T01:03:14.429Z,11.02
2023-05-12T01:04:14.364Z,9.88
2023-05-12T01:05:14.370Z,9.14
2023-05-12T01:06:14.434Z,9.73
2023-05-12T01:07:14.432Z,10.14
2023-05-12T01:08:14.480Z,9.83
2023-05-12T01:09:14.482Z,8.54
2023-05-12T01:10:14.551Z,8.70
2023-05-12T01:11:14.632Z,8.79
2023-05-12T01:12:14.557Z,9.35
2023-05-12T01:13:14.592Z,9.19
2023-05-12T01:14:14.605Z,7.90
2023-05-12T01:15:14.632Z,9.41
2023-05-12T01:16:14.649Z,9.98
2023-05-12T01:17:14.705Z,8.95
2023-05-12T01:18:14.674Z,9.07
2023-05-12T01:19:14.807Z,8.74
2023-05-12T01:20:14.754Z,9.37
2023-05-12T01:21:15.105Z,9.14
2023-05-12T01:22:14.825Z,8.55
2023-05-12T01:23:14.952Z,9.01
2023-05-12T01:24:15.046Z,9.05
2023-05-12T01:25:15.074Z,9.25
2023-05-12T01:26:15.116Z,10.21
2023-05-12T01:27:15.137Z,9.84
2023-05-12T01:28:15.170Z,9.11
2023-05-12T01:29:15.195Z,9.07
2023-05-12T01:30:15.292Z,9.21
2023-05-12T01:31:15.652Z,9.79
2023-05-12T01:32:15.356Z,9.89
2023-05-12T01:33:15.394Z,8.88
2023-05-12T01:34:15.486Z,9.91
2023-05-12T01:35:15.488Z,10.22
2023-05-12T01:36:15.530Z,10.19
2023-05-12T01:37:15.562Z,10.32
2023-05-12T01:38:15.639Z,10.62
2023-05-12T01:39:15.751Z,10.36
2023-05-12T01:40:15.844Z,10.23
2023-05-12T01:41:15.938Z,9.40
2023-05-12T01:42:15.973Z,11.21
2023-05-12T01:43:15.941Z,10.58
2023-05-12T01:44:15.964Z,10.96
2023-05-12T01:45:15.924Z,9.97
2023-05-12T01:46:16.241Z,10.70
2023-05-12T01:47:16.132Z,10.29
2023-05-12T01:48:15.982Z,9.48
2023-05-12T01:49:15.990Z,10.55
2023-05-12T01:50:16.010Z,11.40
2023-05-12T01:51:16.042Z,11.25
2023-05-12T01:52:16.052Z,11.29
2023-05-12T01:53:16.069Z,12.46
2023-05-12T01:54:16.098Z,11.77
2023-05-12T01:55:16.103Z,12.36
2023-05-12T01:56:16.139Z,11.49
2023-05-12T01:57:16.175Z,12.49
2023-05-12T01:58:16.172Z,12.79
2023-05-12T01:59:16.177Z,12.66
2023-05-12T02:00:16.179Z,12.11
2023-05-12T02:01:16.180Z,12.45
2023-05-12T02:02:16.244Z,12.71
2023-05-12T02:03:16.227Z,11.76
2023-05-12T02:04:16.361Z,11.40
2023-05-12T02:05:16.154Z,12.46
2023-05-12T02:06:16.157Z,10.51
2023-05-12T02:07:16.130Z,11.67
2023-05-12T02:08:16.133Z,11.25
2023-05-12T02:09:16.160Z,10.12
2023-05-12T02:10:16.191Z,10.95
2023-05-12T02:11:16.158Z,9.63
2023-05-12T02:12:16.234Z,11.06
2023-05-12T02:13:16.264Z,10.90
2023-05-12T02:14:16.296Z,11.59
2023-05-12T02:15:16.384Z,10.44
2023-05-12T02:16:16.686Z,9.84
2023-05-12T02:17:16.405Z,9.64
2023-05-12T02:18:16.494Z,10.49
2023-05-12T02:19:16.565Z,11.10
2023-05-12T02:20:16.650Z,9.71
2023-05-12T02:21:16.645Z,10.11
2023-05-12T02:22:16.684Z,8.80
2023-05-12T02:23:16.680Z,10.94
2023-05-12T02:24:16.821Z,10.45
2023-05-12T02:25:16.745Z,9.88
2023-05-12T02:26:16.740Z,8.59
2023-05-12T02:27:16.719Z,9.84
2023-05-12T02:28:16.757Z,9.31
2023-05-12T02:29:16.788Z,10.41
2023-05-12T02:30:16.801Z,9.07
2023-05-12T02:31:17.112Z,9.15
2023-05-12T02:32:16.808Z,9.24
2023-05-12T02:33:16.840Z,8.95
2023-05-12T02:34:16.848Z,9.55
2023-05-12T02:35:16.854Z,9.55
2023-05-12T02:36:17.143Z,9.80
2023-05-12T02:37:16.881Z,9.92
2023-05-12T02:38:16.955Z,9.77
2023-05-12T02:39:16.933Z,9.63
2023-05-12T02:40:17.022Z,9.46
2023-05-12T02:41:17.020Z,9.22
2023-05-12T02:42:17.006Z,9.62
2023-05-12T02:43:17.017Z,8.98
2023-05-12T02:44:17.023Z,8.91
2023-05-12T02:45:17.022Z,9.74
2023-05-12T02:46:17.079Z,9.44
2023-05-12T02:47:17.012Z,9.63
2023-05-12T02:48:17.061Z,10.35
2023-05-12T02:49:17.047Z,8.88
2023-05-12T02:50:17.101Z,9.99
2023-05-12T02:51:17.047Z,9.07
2023-05-12T02:52:17.038Z,9.33
2023-05-12T02:53:17.075Z,9.90
2023-05-12T02:54:17.079Z,9.51
2023-05-12T02:55:17.073Z,9.23
2023-05-12T02:56:17.053Z,9.69
2023-05-12T02:57:17.072Z,10.11
2023-05-12T02:58:17.049Z,9.96
2023-05-12T02:59:17.066Z,9.07
2023-05-12T03:00:17.118Z,8.57
2023-05-12T03:01:17.102Z,9.27
2023-05-12T03:02:17.097Z,8.79
2023-05-12T03:03:17.132Z,9.80
2023-05-12T03:04:17.088Z,9.15
2023-05-12T03:05:17.089Z,9.35
2023-05-12T03:06:17.228Z,8.90
2023-05-12T03:07:17.147Z,9.13
2023-05-12T03:08:17.077Z,10.01
2023-05-12T03:09:17.096Z,9.64
2023-05-12T03:10:17.161Z,9.79
2023-05-12T03:11:17.085Z,9.37
2023-05-12T03:12:17.143Z,10.40
2023-05-12T03:13:17.101Z,10.30
2023-05-12T03:14:17.140Z,9.67
2023-05-12T03:15:17.148Z,9.87
2023-05-12T03:16:18.914Z,9.52
2023-05-12T03:17:17.714Z,9.84
2023-05-12T03:18:17.249Z,11.20
2023-05-12T03:19:17.223Z,11.49
2023-05-12T03:20:17.284Z,11.19
2023-05-12T03:21:17.222Z,11.00
2023-05-12T03:22:17.667Z,11.41
2023-05-12T03:23:17.236Z,10.17
2023-05-12T03:24:17.269Z,11.21
2023-05-12T03:25:17.343Z,10.17
2023-05-12T03:26:17.257Z,12.07
2023-05-12T03:27:17.232Z,10.72
2023-05-12T03:28:17.280Z,11.72
2023-05-12T03:29:17.262Z,11.94
2023-05-12T03:30:17.412Z,11.57
2023-05-12T03:31:17.265Z,10.65
2023-05-12T03:32:17.298Z,11.03
2023-05-12T03:33:17.297Z,12.17
2023-05-12T03:34:17.303Z,10.90
2023-05-12T03:35:17.296Z,9.32
2023-05-12T03:36:17.347Z,11.03
2023-05-12T03:37:17.661Z,10.75
2023-05-12T03:38:17.337Z,11.01
2023-05-12T03:39:17.285Z,12.21
2023-05-12T03:40:17.422Z,11.16
2023-05-12T03:41:17.292Z,11.28
2023-05-12T03:42:17.691Z,10.89
2023-05-12T03:43:17.313Z,11.15
2023-05-12T03:44:17.322Z,10.68
2023-05-12T03:45:17.312Z,10.91
2023-05-12T03:46:17.377Z,10.30
2023-05-12T03:47:17.727Z,12.09
2023-05-12T03:48:17.346Z,10.62
2023-05-12T03:49:17.347Z,10.83
2023-05-12T03:50:17.429Z,11.97
2023-05-12T03:51:17.361Z,10.99
2023-05-12T03:52:17.356Z,10.52
2023-05-12T03:53:17.354Z,10.31
2023-05-12T03:54:17.344Z,11.90
2023-05-12T03:55:17.366Z,11.53
2023-05-12T03:56:17.357Z,11.62
2023-05-12T03:57:17.368Z,10.41
2023-05-12T03:58:17.362Z,10.45
2023-05-12T03:59:17.345Z,10.55
2023-05-12T04:00:17.394Z,10.43
2023-05-12T04:01:17.370Z,9.90
2023-05-12T04:02:17.692Z,10.40
2023-05-12T04:03:17.565Z,11.35
2023-05-12T04:04:17.409Z,11.76
2023-05-12T04:05:17.392Z,11.15
2023-05-12T04:06:17.363Z,11.03
2023-05-12T04:07:17.434Z,10.94
2023-05-12T04:08:17.436Z,10.31
2023-05-12T04:09:17.455Z,11.41
2023-05-12T04:10:17.480Z,11.04
2023-05-12T04:11:17.409Z,10.21
2023-05-12T04:12:17.479Z,10.21
2023-05-12T04:13:17.416Z,9.67
2023-05-12T04:14:17.498Z,10.05
2023-05-12T04:15:17.487Z,8.96
2023-05-12T04:16:17.546Z,8.92
2023-05-12T04:17:17.688Z,8.05
2023-05-12T04:18:17.520Z,9.32
2023-05-12T04:19:17.512Z,8.03
2023-05-12T04:20:17.716Z,8.56
2023-05-12T04:21:17.479Z,9.39
2023-05-12T04:22:17.666Z,8.70
2023-05-12T04:23:17.513Z,9.24
2023-05-12T04:24:17.511Z,9.50
2023-05-12T04:25:17.558Z,9.50
2023-05-12T04:26:17.519Z,10.22
2023-05-12T04:27:17.636Z,8.85
2023-05-12T04:28:17.534Z,8.74
2023-05-12T04:29:17.537Z,9.43
2023-05-12T04:30:17.616Z,9.18
2023-05-12T04:31:17.587Z,8.87
2023-05-12T04:32:17.773Z,8.09
2023-05-12T04:33:17.663Z,7.74
2023-05-12T04:34:17.525Z,8.18
2023-05-12T04:35:17.557Z,8.98
2023-05-12T04:36:17.555Z,7.82
2023-05-12T04:37:17.679Z,8.95
2023-05-12T04:38:17.655Z,8.64
2023-05-12T04:39:17.544Z,8.63
2023-05-12T04:40:17.645Z,9.21
2023-05-12T04:41:17.601Z,9.53
2023-05-12T04:42:17.608Z,8.03
2023-05-12T04:44:17.557Z,8.34
2023-05-12T04:45:17.660Z,8.17
2023-05-12T04:46:17.560Z,8.00
2023-05-12T04:47:17.537Z,8.43
2023-05-12T04:48:17.542Z,7.56
2023-05-12T04:49:17.548Z,8.89
2023-05-12T04:50:17.513Z,8.73
2023-05-12T04:51:17.513Z,8.25
2023-05-12T04:52:17.508Z,8.02
2023-05-12T04:53:17.500Z,8.51
2023-05-12T04:54:17.473Z,8.91
2023-05-12T04:55:17.526Z,8.25
2023-05-12T04:56:17.509Z,8.87
2023-05-12T04:57:17.668Z,7.63
2023-05-12T04:58:17.471Z,7.76
2023-05-12T04:59:17.489Z,9.17
2023-05-12T05:00:17.454Z,8.94
2023-05-12T05:01:17.466Z,8.54
2023-05-12T05:02:17.716Z,8.45
2023-05-12T05:03:17.598Z,8.86
2023-05-12T05:04:17.472Z,9.80
2023-05-12T05:05:17.437Z,9.50
2023-05-12T05:06:17.410Z,9.52
2023-05-12T05:07:17.677Z,9.66
2023-05-12T05:08:17.400Z,8.51
2023-05-12T05:09:17.393Z,9.78
2023-05-12T05:10:17.409Z,9.06
2023-05-12T05:11:17.403Z,8.93
2023-05-12T05:12:17.364Z,10.10
2023-05-12T05:13:17.384Z,9.79
2023-05-12T05:14:17.381Z,9.64
2023-05-12T05:15:17.534Z,9.05
2023-05-12T05:16:17.390Z,10.10
2023-05-12T05:17:17.338Z,9.45
2023-05-12T05:18:17.348Z,8.96
2023-05-12T05:19:22.842Z,8.73
2023-05-12T05:20:19.699Z,8.92
2023-05-12T05:21:17.489Z,8.95
2023-05-12T05:22:17.479Z,8.77
2023-05-12T05:23:17.486Z,8.75
2023-05-12T05:24:17.478Z,9.89
2023-05-12T05:25:17.579Z,9.00
2023-05-12T05:26:17.529Z,8.51
2023-05-12T05:27:17.534Z,9.20
2023-05-12T05:28:17.528Z,9.90
2023-05-12T05:29:17.544Z,8.16
2023-05-12T05:30:17.563Z,9.24
2023-05-12T05:31:17.641Z,8.74
2023-05-12T05:32:17.709Z,9.67
2023-05-12T05:33:17.623Z,8.96
2023-05-12T05:34:17.711Z,8.96
2023-05-12T05:35:17.961Z,10.10
2023-05-12T05:36:17.780Z,9.12
2023-05-12T05:37:18.204Z,9.10
2023-05-12T05:38:17.915Z,8.87
2023-05-12T05:39:18.024Z,8.47
2023-05-12T05:40:18.069Z,9.15
2023-05-12T05:41:18.114Z,8.45
2023-05-12T05:42:18.177Z,8.80
2023-05-12T05:43:18.216Z,8.42
2023-05-12T05:44:18.342Z,7.80
2023-05-12T05:45:18.490Z,8.01
2023-05-12T05:46:18.456Z,8.04
2023-05-12T05:47:18.449Z,7.90
2023-05-12T05:48:18.532Z,8.20
2023-05-12T05:49:18.577Z,7.91
2023-05-12T05:50:18.643Z,8.77
2023-05-12T05:51:18.681Z,7.13
2023-05-12T05:52:19.200Z,6.20
2023-05-12T05:53:19.486Z,7.02
2023-05-12T05:54:18.897Z,6.59
2023-05-12T05:55:19.378Z,7.88
2023-05-12T05:56:18.995Z,7.81
2023-05-12T05:57:19.173Z,7.95
2023-05-12T05:58:19.071Z,7.45
2023-05-12T05:59:19.150Z,7.31
2023-05-12T06:00:19.219Z,7.46
2023-05-12T06:01:19.280Z,7.55
2023-05-12T06:02:19.352Z,7.09
2023-05-12T06:03:19.561Z,8.60
2023-05-12T06:04:19.541Z,8.48
2023-05-12T06:05:19.779Z,7.42
2023-05-12T06:06:19.601Z,7.66
2023-05-12T06:07:22.003Z,6.18
2023-05-12T06:08:19.801Z,7.14
2023-05-12T06:09:19.826Z,6.56
2023-05-12T06:10:20.095Z,6.56
2023-05-12T06:11:19.935Z,6.68
2023-05-12T06:12:20.227Z,8.28
2023-05-12T06:13:20.066Z,7.86
2023-05-12T06:14:20.165Z,7.45
2023-05-12T06:15:20.482Z,9.07
2023-05-12T06:16:20.234Z,7.52
2023-05-12T06:17:20.319Z,8.62
2023-05-12T06:18:20.338Z,8.31
2023-05-12T06:19:20.339Z,7.58
2023-05-12T06:20:20.391Z,8.67
2023-05-12T06:21:20.439Z,8.10
2023-05-12T06:22:20.504Z,7.59
2023-05-12T06:23:20.510Z,8.24
2023-05-12T06:24:20.508Z,8.50
2023-05-12T06:25:20.789Z,7.49
2023-05-12T06:26:20.528Z,7.47
2023-05-12T06:27:20.603Z,12.22
2023-05-12T06:28:20.604Z,12.11
2023-05-12T06:29:20.640Z,11.96
2023-05-12T06:30:20.677Z,12.86
2023-05-12T06:31:20.755Z,8.62
2023-05-12T06:32:21.240Z,7.84
2023-05-12T06:33:20.768Z,7.79
2023-05-12T06:34:20.832Z,7.39
2023-05-12T06:35:21.082Z,7.21
2023-05-12T06:36:20.948Z,6.04
2023-05-12T06:37:21.004Z,7.11
2023-05-12T06:38:21.224Z,6.56
2023-05-12T06:39:21.059Z,6.59
2023-05-12T06:40:21.135Z,7.25
2023-05-12T06:41:21.149Z,7.19
2023-05-12T06:42:21.149Z,6.98
2023-05-12T06:43:21.227Z,6.97
2023-05-12T06:44:21.172Z,7.09
2023-05-12T06:45:21.798Z,7.11
2023-05-12T06:46:21.334Z,6.88
2023-05-12T06:47:21.353Z,6.14
2023-05-12T06:48:21.718Z,6.21
2023-05-12T06:49:21.417Z,6.41
2023-05-12T06:50:21.431Z,6.48
2023-05-12T06:51:21.381Z,6.08
2023-05-12T06:52:21.482Z,7.16
2023-05-12T06:53:24.016Z,6.87
2023-05-12T06:54:21.490Z,6.78
2023-05-12T06:55:21.785Z,6.51
2023-05-12T06:56:21.422Z,6.98
2023-05-12T06:57:21.408Z,6.77
2023-05-12T06:58:21.734Z,7.54
2023-05-12T06:59:21.505Z,6.44
2023-05-12T07:00:21.341Z,6.49
2023-05-12T07:01:21.389Z,6.83
2023-05-12T07:02:22.389Z,8.10
2023-05-12T07:03:21.737Z,7.41
2023-05-12T07:04:21.331Z,7.44
2023-05-12T07:05:21.585Z,7.44
2023-05-12T07:06:21.350Z,6.98
2023-05-12T07:07:21.312Z,7.68
2023-05-12T07:08:21.705Z,7.47
2023-05-12T07:09:21.312Z,7.34
2023-05-12T07:10:21.334Z,7.71
2023-05-12T07:11:21.337Z,7.63
2023-05-12T07:12:21.300Z,7.82
2023-05-12T07:13:21.722Z,7.08
2023-05-12T07:14:21.272Z,7.03
2023-05-12T07:15:21.546Z,6.76
2023-05-12T07:16:21.341Z,7.25
2023-05-12T07:17:21.301Z,6.56
2023-05-12T07:18:21.773Z,6.74
2023-05-12T07:19:21.299Z,6.03
2023-05-12T07:20:21.363Z,6.67
2023-05-12T07:21:21.428Z,6.95
2023-05-12T07:22:21.536Z,5.85
2023-05-12T07:23:21.566Z,6.38
2023-05-12T07:24:21.628Z,5.62
2023-05-12T07:25:21.949Z,5.49
2023-05-12T07:26:21.708Z,5.16
2023-05-12T07:27:21.765Z,6.39
2023-05-12T07:28:22.218Z,5.19
2023-05-12T07:29:21.888Z,6.35
2023-05-12T07:30:21.934Z,5.47
2023-05-12T07:31:22.038Z,5.18
2023-05-12T07:32:21.987Z,5.59
2023-05-12T07:33:22.231Z,4.68
2023-05-12T07:34:22.044Z,4.23
2023-05-12T07:35:22.252Z,5.06
2023-05-12T07:36:22.265Z,4.66
2023-05-12T07:37:22.066Z,4.62
2023-05-12T07:38:22.073Z,4.96
2023-05-12T07:39:22.135Z,4.93
2023-05-12T07:40:22.213Z,4.70
2023-05-12T07:41:22.337Z,4.84
2023-05-12T07:42:22.446Z,4.74
2023-05-12T07:43:22.139Z,4.26
2023-05-12T07:44:22.115Z,4.42
2023-05-12T07:45:22.177Z,4.20
2023-05-12T07:46:22.206Z,4.24
2023-05-12T07:47:22.141Z,5.12
2023-05-12T07:48:22.226Z,4.27
2023-05-12T07:49:22.159Z,4.08
2023-05-12T07:50:22.226Z,4.09
2023-05-12T07:51:22.202Z,3.95
2023-05-12T07:52:22.247Z,3.72
2023-05-12T07:53:22.724Z,3.17
2023-05-12T07:54:22.296Z,3.65
2023-05-12T07:55:22.502Z,3.72
2023-05-12T07:56:22.382Z,2.78
2023-05-12T07:57:22.388Z,3.13
2023-05-12T07:58:22.778Z,2.62
2023-05-12T07:59:22.469Z,2.74
2023-05-12T08:00:22.546Z,2.53
2023-05-12T08:01:22.601Z,2.37
2023-05-12T08:02:22.677Z,2.28
2023-05-12T08:03:22.775Z,2.72
2023-05-12T08:04:22.781Z,2.19
2023-05-12T08:05:22.848Z,2.07
2023-05-12T08:06:22.812Z,3.11
2023-05-12T08:07:22.858Z,2.17
2023-05-12T08:08:23.268Z,2.14
2023-05-12T08:09:22.920Z,2.00
2023-05-12T08:10:22.970Z,1.70
2023-05-12T08:11:22.944Z,1.51
2023-05-12T08:12:22.952Z,1.53
2023-05-12T08:13:22.995Z,1.89
2023-05-12T08:14:23.012Z,2.03
2023-05-12T08:15:23.712Z,2.51
2023-05-12T08:16:23.053Z,2.21
2023-05-12T08:17:23.070Z,2.79
2023-05-12T08:18:23.267Z,2.75
2023-05-12T08:19:22.999Z,2.34
2023-05-12T08:20:23.196Z,2.75
2023-05-12T08:21:23.064Z,2.88
2023-05-12T08:22:23.099Z,3.37
2023-05-12T08:23:23.718Z,2.30
2023-05-12T08:24:23.398Z,2.74
2023-05-12T08:25:23.191Z,2.44
2023-05-12T08:26:23.210Z,3.61
2023-05-12T08:27:23.149Z,2.60
2023-05-12T08:28:23.152Z,2.46
2023-05-12T08:29:23.151Z,3.23
2023-05-12T08:30:23.193Z,2.97
2023-05-12T08:31:23.191Z,2.98
2023-05-12T08:32:23.172Z,3.05
2023-05-12T08:33:23.236Z,2.82
2023-05-12T08:34:23.269Z,3.27
2023-05-12T08:35:23.287Z,3.34
2023-05-12T08:36:23.395Z,2.98
2023-05-12T08:37:23.426Z,3.19
2023-05-12T08:38:23.478Z,3.38
2023-05-12T08:39:23.513Z,2.95
2023-05-12T08:40:23.684Z,2.74
2023-05-12T08:41:23.635Z,2.63
2023-05-12T08:42:23.704Z,2.90
2023-05-12T08:43:23.732Z,2.95
2023-05-12T08:44:23.855Z,3.16
2023-05-12T08:45:23.911Z,2.62
2023-05-12T08:46:24.093Z,2.72
2023-05-12T08:47:23.955Z,2.96
2023-05-12T08:48:24.002Z,3.42
2023-05-12T08:49:24.016Z,2.87
2023-05-12T08:50:24.103Z,3.33
2023-05-12T08:51:24.208Z,3.17
2023-05-12T08:52:24.191Z,3.15
2023-05-12T08:53:24.212Z,3.31
2023-05-12T08:54:24.277Z,2.92
2023-05-12T08:55:28.541Z,2.78
2023-05-12T08:57:24.323Z,3.49
2023-05-12T08:58:33.979Z,3.09
2023-05-12T08:59:25.317Z,2.96
2023-05-12T09:00:24.377Z,2.85
2023-05-12T09:01:24.353Z,2.82
2023-05-12T09:02:24.629Z,2.57
2023-05-12T09:03:24.801Z,2.85
2023-05-12T09:04:24.360Z,2.87
2023-05-12T09:05:24.304Z,2.90
2023-05-12T09:06:24.306Z,2.29
2023-05-12T09:07:24.252Z,2.51
2023-05-12T09:08:24.250Z,2.15
2023-05-12T09:09:24.257Z,1.87
2023-05-12T09:11:24.260Z,2.30
2023-05-12T09:12:24.220Z,2.72
2023-05-12T09:13:24.251Z,2.71
2023-05-12T09:14:24.183Z,2.18
2023-05-12T09:15:24.195Z,2.36
2023-05-12T09:16:24.258Z,2.03
2023-05-12T09:17:24.235Z,2.34
2023-05-12T09:18:24.177Z,2.50
2023-05-12T09:19:24.175Z,3.63
2023-05-12T09:21:25.195Z,2.18
2023-05-12T09:22:24.177Z,2.79
2023-05-12T09:23:24.255Z,2.51
2023-05-12T09:24:24.230Z,2.23
2023-05-12T09:25:24.170Z,2.34
2023-05-12T09:26:24.110Z,2.76
2023-05-12T09:27:24.140Z,2.81
2023-05-12T09:28:24.119Z,2.08
2023-05-12T09:29:31.821Z,2.13
2023-05-12T09:30:25.101Z,1.77
2023-05-12T09:31:24.082Z,2.38
2023-05-12T09:32:24.094Z,2.16
2023-05-12T09:33:24.084Z,2.21
2023-05-12T09:34:24.227Z,2.13
2023-05-12T09:35:24.083Z,2.26
2023-05-12T09:36:24.030Z,2.31
2023-05-12T09:37:24.034Z,2.55
2023-05-12T09:38:24.042Z,2.28
2023-05-12T09:39:24.038Z,2.42
2023-05-12T09:40:25.025Z,2.41
2023-05-12T09:41:24.103Z,2.52
2023-05-12T09:42:24.139Z,2.30
2023-05-12T09:43:24.177Z,2.68
2023-05-12T09:44:24.300Z,2.38
2023-05-12T09:45:24.474Z,2.61
2023-05-12T09:46:24.510Z,2.39
2023-05-12T09:47:24.307Z,1.88
2023-05-12T09:48:26.191Z,2.44
2023-05-12T09:49:24.744Z,1.99
2023-05-12T09:50:24.269Z,1.83
2023-05-12T09:51:24.301Z,2.30
2023-05-12T09:52:24.257Z,2.15
2023-05-12T09:53:24.226Z,1.87
2023-05-12T09:54:24.241Z,2.30
2023-05-12T09:55:24.255Z,2.47
2023-05-12T09:56:24.212Z,2.22
2023-05-12T09:57:24.209Z,2.74
2023-05-12T09:58:24.184Z,2.39
2023-05-12T09:59:24.191Z,2.50
2023-05-12T10:00:37.035Z,2.42
2023-05-12T10:01:25.352Z,2.09
2023-05-12T10:02:24.302Z,2.31
2023-05-12T10:03:24.147Z,2.25
2023-05-12T10:04:24.289Z,2.66
2023-05-12T10:05:24.212Z,2.07
2023-05-12T10:06:24.162Z,2.07
2023-05-12T10:07:24.102Z,1.77
2023-05-12T10:08:24.128Z,1.55
2023-05-12T10:09:24.285Z,1.73
2023-05-12T10:10:24.122Z,1.19
2023-05-12T10:11:24.114Z,1.70
2023-05-12T10:12:24.160Z,1.32
2023-05-12T10:13:24.177Z,1.60
2023-05-12T10:14:24.273Z,1.36
2023-05-12T10:15:24.274Z,1.52
2023-05-12T10:16:24.311Z,1.56
2023-05-12T10:17:24.401Z,2.03
2023-05-12T10:18:24.489Z,1.51
2023-05-12T10:19:24.484Z,1.67
2023-05-12T10:20:24.530Z,1.60
2023-05-12T10:21:24.566Z,1.98
2023-05-12T10:22:24.639Z,1.55
2023-05-12T10:23:24.697Z,1.51
2023-05-12T10:24:24.795Z,1.44
2023-05-12T10:25:24.752Z,1.42
2023-05-12T10:26:24.762Z,1.67
2023-05-12T10:27:24.787Z,1.69
2023-05-12T10:28:24.844Z,1.63
2023-05-12T10:29:24.869Z,1.69
2023-05-12T10:30:24.934Z,1.99
2023-05-12T10:31:24.970Z,2.24
2023-05-12T10:32:24.935Z,2.41
2023-05-12T10:33:25.058Z,1.50
2023-05-12T10:34:25.275Z,2.27
2023-05-12T10:35:25.024Z,2.07
2023-05-12T10:36:25.032Z,1.54
2023-05-12T10:37:25.014Z,1.88
2023-05-12T10:38:24.999Z,1.63
2023-05-12T10:39:25.300Z,2.06
2023-05-12T10:40:25.009Z,1.60
2023-05-12T10:41:25.019Z,2.02
2023-05-12T10:42:25.046Z,1.83
2023-05-12T10:43:25.000Z,1.24
2023-05-12T10:44:25.002Z,1.77
2023-05-12T10:45:25.066Z,1.64
2023-05-12T10:46:25.101Z,1.46
2023-05-12T10:47:25.065Z,1.47
2023-05-12T10:48:25.020Z,1.35
2023-05-12T10:49:25.094Z,1.76
2023-05-12T10:50:25.021Z,1.51
2023-05-12T10:51:25.026Z,1.36
2023-05-12T10:52:25.015Z,1.47
2023-05-12T10:53:28.616Z,1.45
2023-05-12T10:54:26.043Z,1.54
2023-05-12T10:55:25.339Z,1.70
2023-05-12T10:56:25.387Z,1.44
2023-05-12T10:57:25.210Z,1.40
2023-05-12T10:58:25.313Z,1.20
2023-05-12T10:59:25.588Z,0.88
2023-05-12T11:00:25.778Z,0.88
2023-05-12T11:01:25.430Z,1.02
2023-05-12T11:02:26.087Z,1.20
2023-05-12T11:03:25.603Z,1.07
2023-05-12T11:04:25.174Z,1.31
2023-05-12T11:05:25.377Z,1.07
2023-05-12T11:06:25.660Z,1.01
2023-05-12T11:07:25.276Z,0.98
2023-05-12T11:08:25.357Z,0.71
2023-05-12T11:09:25.430Z,1.10
2023-05-12T11:10:26.604Z,0.92
2023-05-12T11:11:26.392Z,0.90
2023-05-12T11:12:25.386Z,0.62
2023-05-12T11:13:25.397Z,0.70
2023-05-12T11:14:25.493Z,0.88
2023-05-12T11:15:25.514Z,1.19
2023-05-12T11:16:25.546Z,0.78
2023-05-12T11:17:25.686Z,1.11
2023-05-12T11:18:25.627Z,0.59
2023-05-12T11:19:25.682Z,1.44
2023-05-12T11:20:26.143Z,1.68
2023-05-12T11:21:25.766Z,1.66
2023-05-12T11:22:25.803Z,1.13
2023-05-12T11:23:25.880Z,0.97
2023-05-12T11:24:25.947Z,0.84
2023-05-12T11:25:25.962Z,1.11
2023-05-12T11:26:26.027Z,1.17
2023-05-12T11:27:26.026Z,0.89
2023-05-12T11:28:26.070Z,1.22
2023-05-12T11:29:26.076Z,1.15
2023-05-12T11:30:26.106Z,0.77
2023-05-12T11:31:26.240Z,1.21
2023-05-12T11:32:26.211Z,0.88
2023-05-12T11:33:26.131Z,0.84
2023-05-12T11:34:26.303Z,0.81
2023-05-12T11:35:26.136Z,0.97
2023-05-12T11:36:26.136Z,1.01
2023-05-12T11:37:26.241Z,0.77
2023-05-12T11:38:26.203Z,0.71
2023-05-12T11:39:26.159Z,1.32
2023-05-12T11:40:26.189Z,1.05
2023-05-12T11:41:26.201Z,0.96
2023-05-12T11:42:26.273Z,1.01
2023-05-12T11:43:26.259Z,1.07
2023-05-12T11:44:26.809Z,0.64
2023-05-12T11:45:26.376Z,0.80
2023-05-12T11:46:26.633Z,0.86
2023-05-12T11:47:26.575Z,0.77
2023-05-12T11:48:26.568Z,0.70
2023-05-12T11:49:26.666Z,0.63
2023-05-12T11:50:26.660Z,0.74
2023-05-12T11:51:26.729Z,0.81
2023-05-12T11:52:26.759Z,0.96
2023-05-12T11:53:27.800Z,0.94
2023-05-12T11:54:26.917Z,0.83
2023-05-12T11:55:26.970Z,0.53
2023-05-12T11:56:27.010Z,0.64
2023-05-12T11:57:27.078Z,0.75
2023-05-12T11:58:27.219Z,0.74
2023-05-12T11:59:27.202Z,0.54
2023-05-12T12:00:27.253Z,0.44
2023-05-12T12:01:27.316Z,0.50
2023-05-12T12:02:27.475Z,0.45
2023-05-12T12:03:27.479Z,0.77
2023-05-12T12:04:27.515Z,0.81
2023-05-12T12:05:27.493Z,0.82
2023-05-12T12:06:27.601Z,0.39
2023-05-12T12:07:27.585Z,0.73
2023-05-12T12:08:27.644Z,0.64
2023-05-12T12:09:27.718Z,0.77
2023-05-12T12:10:27.792Z,0.56
2023-05-12T12:11:27.792Z,0.53
2023-05-12T12:12:27.831Z,0.41
2023-05-12T12:13:27.849Z,0.69
2023-05-12T12:14:28.326Z,0.57
2023-05-12T12:15:27.965Z,0.77
2023-05-12T12:16:28.122Z,0.79
2023-05-12T12:17:28.115Z,0.45
2023-05-12T12:18:28.200Z,1.07
2023-05-12T12:19:28.217Z,0.57
2023-05-12T12:20:28.202Z,0.74
2023-05-12T12:21:28.280Z,0.80
2023-05-12T12:22:28.422Z,1.07
2023-05-12T12:23:30.386Z,0.86
2023-05-12T12:24:29.414Z,0.86
2023-05-12T12:25:28.408Z,0.82
2023-05-12T12:26:28.354Z,0.57
2023-05-12T12:27:28.342Z,0.75
2023-05-12T12:28:28.324Z,0.56
2023-05-12T12:29:28.362Z,0.42
2023-05-12T12:30:28.847Z,0.65
2023-05-12T12:31:28.411Z,0.59
2023-05-12T12:32:28.348Z,0.75
2023-05-12T12:33:28.311Z,0.41
2023-05-12T12:34:28.284Z,0.70
2023-05-12T12:35:28.309Z,0.96
2023-05-12T12:36:28.281Z,1.03
2023-05-12T12:37:28.261Z,0.69
2023-05-12T12:38:28.353Z,0.48
2023-05-12T12:39:28.305Z,0.63
2023-05-12T12:40:28.329Z,0.74
2023-05-12T12:41:28.234Z,0.51
2023-05-12T12:42:28.235Z,0.72
2023-05-12T12:43:28.252Z,0.58
2023-05-12T12:44:28.333Z,0.42
2023-05-12T12:45:28.855Z,0.51
2023-05-12T12:46:28.461Z,0.74
2023-05-12T12:47:28.502Z,0.64
2023-05-12T12:48:28.475Z,0.57
2023-05-12T12:49:28.475Z,0.62
2023-05-12T12:50:28.893Z,0.32
2023-05-12T12:51:38.542Z,0.53
2023-05-12T12:52:29.508Z,0.64
2023-05-12T12:53:28.476Z,0.41
2023-05-12T12:54:28.489Z,0.53
2023-05-12T12:55:28.463Z,0.83
2023-05-12T12:56:28.439Z,0.53
2023-05-12T12:57:28.449Z,0.24
2023-05-12T12:58:28.410Z,0.43
2023-05-12T12:59:28.423Z,0.53
2023-05-12T13:00:28.854Z,0.32
2023-05-12T13:01:37.017Z,0.56
2023-05-12T13:02:28.695Z,0.39
2023-05-12T13:03:28.769Z,0.49
2023-05-12T13:04:28.683Z,0.44
2023-05-12T13:05:28.808Z,0.70
2023-05-12T13:06:28.849Z,0.53
2023-05-12T13:07:28.880Z,0.57
2023-05-12T13:08:28.971Z,0.62
2023-05-12T13:09:28.989Z,0.58
2023-05-12T13:10:29.041Z,0.37
2023-05-12T13:11:29.184Z,0.39
2023-05-12T13:12:29.153Z,0.60
2023-05-12T13:13:29.193Z,0.45
2023-05-12T13:14:29.207Z,0.60
2023-05-12T13:15:29.364Z,0.55
2023-05-12T13:16:29.347Z,0.52
2023-05-12T13:17:29.418Z,0.56
2023-05-12T13:18:29.489Z,0.80